PILOTS ONLINE: 254    ATC ONLINE: 22

KCWA

Central Wisconsin Airport

Location

IATA CWA
City Mosinee
Country  United States
Latitude 44° 46' 39" N
Longitude 89° 40' 0" W
Elevation 1277 ft
Type Medium Airport

Map

Weather

METAR
2014/10/23 09:55
KCWA 230955Z AUTO 16005KT 10SM SCT030 OVC037 04/03 A3014 RMK AO2
TAF
2014/10/23 09:54
TAF 
      AMD KCWA 230852Z 2309/2406 14003KT P6SM BKN080 
      TEMPO 2310/2311 -SHRA BKN040 
     FM231200 14005KT P6SM VCSH SCT025 OVC040 
     FM231600 15005KT 5SM -SHRA BR OVC015 
     FM232200 20005KT P6SM OVC012 
     FM240200 26003KT 5SM BR OVC009 
      AMD LTD TO CLD VIS AND WIND TIL 231200

Runways

08/26 7645 ft / 150 ft
17/35 6501 ft / 150 ft

Outbound flights

Callsign Flying to Pilot ATD/STD ETA Aircraft

Inbound flights

Callsign Flying from Pilot ATD ETA Aircraft